Time;durP1;ratioP1;P1;durP2;ratioP2;P2;SDS_P1;SDS_P2;PMS_P1;PMS_P2;Temp;Humidity;BMP_temperature;BMP_pressure;BME280_temperature;BME280_humidity;BME280_pressure;Samples;Min_cycle;Max_cycle;Signal;HPM_P1;HPM_P2
2021/08/04 00:02:21;;;;;;;3.92;1.05;;;;;;;16.13;68.83;101313.31;10201038;28;20041;-71
2021/08/04 00:07:17;;;;;;;3.55;1.02;;;;;;;16.12;69.05;101316.41;10209049;28;20100;-72
2021/08/04 00:12:14;;;;;;;2.47;1.38;;;;;;;16.08;68.82;101310.78;10200985;28;20416;-72
2021/08/04 00:17:10;;;;;;;4.78;1.40;;;;;;;16.07;68.52;101309.16;10203649;28;20499;-71
2021/08/04 00:22:07;;;;;;;5.20;1.05;;;;;;;16.07;69.12;101309.16;10194025;28;20466;-69
2021/08/04 00:27:04;;;;;;;4.25;1.42;;;;;;;16.02;68.75;101312.13;10194067;28;20049;-70
2021/08/04 00:32:00;;;;;;;3.53;1.38;;;;;;;15.99;68.74;101313.63;10191232;28;20081;-70
2021/08/04 00:36:57;;;;;;;3.47;1.35;;;;;;;15.99;68.67;101319.16;10200092;28;20049;-69
2021/08/04 00:41:53;;;;;;;3.10;1.50;;;;;;;15.94;68.96;101310.25;10201710;28;20070;-72
2021/08/04 00:46:50;;;;;;;4.50;1.50;;;;;;;15.86;69.61;101305.66;10203844;28;20084;-73
2021/08/04 00:51:46;;;;;;;2.65;1.50;;;;;;;15.83;69.64;101298.03;10192707;28;20080;-72
2021/08/04 00:56:43;;;;;;;2.53;1.25;;;;;;;15.87;69.20;101298.97;10181593;28;20053;-71
2021/08/04 01:01:50;;;;;;;2.38;1.10;;;;;;;15.87;70.15;101304.50;10197281;28;20419;-72
2021/08/04 01:07:09;;;;;;;3.83;1.60;;;;;;;15.86;70.10;101313.94;10174154;28;20054;-72
2021/08/04 01:12:06;;;;;;;2.88;1.40;;;;;;;15.83;71.22;101315.41;10194183;28;20459;-71
2021/08/04 01:17:04;;;;;;;3.45;1.73;;;;;;;15.75;70.23;101325.34;10196329;28;20115;-69
2021/08/04 01:22:27;;;;;;;4.55;2.08;;;;;;;15.68;70.39;101322.31;10197265;28;20454;-69
2021/08/04 01:27:24;;;;;;;4.35;1.40;;;;;;;15.67;70.56;101322.66;10187036;28;20137;-70
2021/08/04 01:32:22;;;;;;;3.33;1.60;;;;;;;15.66;70.84;101327.34;10209915;28;20100;-70
2021/08/04 01:37:22;;;;;;;4.30;1.85;;;;;;;15.66;71.26;101321.84;10208063;28;20070;-69
2021/08/04 01:42:20;;;;;;;5.25;1.70;;;;;;;15.63;71.13;101317.00;10212237;28;20042;-71
2021/08/04 01:47:17;;;;;;;4.40;1.58;;;;;;;15.62;71.29;101320.94;10186422;28;20099;-70
2021/08/04 01:52:14;;;;;;;5.38;1.83;;;;;;;15.52;71.45;101315.81;10206670;28;20138;-70
2021/08/04 01:57:10;;;;;;;3.42;1.75;;;;;;;15.46;71.75;101311.66;10205658;28;20076;-71
2021/08/04 02:02:15;;;;;;;6.88;1.75;;;;;;;15.45;71.93;101318.28;10198840;28;20156;-72
2021/08/04 02:07:23;;;;;;;4.10;2.10;;;;;;;15.40;71.56;101324.00;10195648;28;20511;-71
2021/08/04 02:12:21;;;;;;;4.60;1.80;;;;;;;15.40;71.72;101321.25;10199013;28;20073;-72
2021/08/04 02:17:20;;;;;;;4.80;1.80;;;;;;;15.40;71.65;101319.31;10191887;28;20077;-72
2021/08/04 02:22:40;;;;;;;5.82;2.28;;;;;;;15.36;71.53;101323.88;10191547;28;20053;-67
2021/08/04 02:27:39;;;;;;;4.05;2.42;;;;;;;15.31;71.66;101311.09;10177125;28;20053;-70
2021/08/04 02:32:36;;;;;;;4.68;2.20;;;;;;;15.21;72.13;101306.00;10208515;28;20145;-71
2021/08/04 02:37:34;;;;;;;6.05;2.20;;;;;;;15.20;72.16;101303.56;10200280;28;20403;-70
2021/08/04 02:42:32;;;;;;;3.92;1.83;;;;;;;15.14;72.33;101300.22;10198814;28;20157;-71
2021/08/04 02:47:28;;;;;;;5.28;2.20;;;;;;;15.04;73.15;101300.59;10197919;28;20634;-70
2021/08/04 02:52:26;;;;;;;6.18;2.35;;;;;;;15.05;73.04;101291.19;10205940;28;20041;-71
2021/08/04 02:57:22;;;;;;;6.15;2.78;;;;;;;14.98;73.48;101302.75;10199626;28;20547;-70
2021/08/04 03:02:18;;;;;;;5.15;2.60;;;;;;;14.98;73.69;101301.94;10190532;28;20138;-68
2021/08/04 03:07:15;;;;;;;5.32;2.60;;;;;;;14.97;73.50;101305.81;10199053;28;20146;-70
2021/08/04 03:12:12;;;;;;;4.53;2.42;;;;;;;14.93;73.86;101305.69;10207667;28;20046;-70
2021/08/04 03:17:09;;;;;;;5.47;2.78;;;;;;;14.89;74.40;101311.03;10196444;28;20678;-68
2021/08/04 03:22:05;;;;;;;4.47;2.60;;;;;;;14.89;74.35;101313.81;10198707;28;20042;-71
2021/08/04 03:27:02;;;;;;;3.78;1.98;;;;;;;14.89;74.23;101315.75;10192680;28;20046;-71
2021/08/04 03:31:59;;;;;;;4.45;2.42;;;;;;;14.86;75.05;101308.97;10195369;28;20072;-69
2021/08/04 03:36:55;;;;;;;5.28;2.50;;;;;;;14.83;74.72;101306.88;10201843;28;20099;-68
2021/08/04 03:41:52;;;;;;;5.30;2.65;;;;;;;14.81;75.03;101309.16;10209304;28;20053;-65
2021/08/04 03:46:49;;;;;;;4.65;2.92;;;;;;;14.83;74.32;101306.88;10197709;28;20042;-69
2021/08/04 03:51:46;;;;;;;5.13;2.40;;;;;;;14.86;74.29;101317.22;10191819;28;20046;-69
2021/08/04 03:56:42;;;;;;;6.05;3.08;;;;;;;14.86;74.30;101322.72;10180916;28;20136;-69
2021/08/04 04:01:39;;;;;;;4.80;3.00;;;;;;;14.86;74.40;101321.94;10195367;28;20119;-68
2021/08/04 04:06:35;;;;;;;5.60;3.05;;;;;;;14.86;74.37;101321.94;10179097;28;20129;-67
2021/08/04 04:11:32;;;;;;;8.25;3.20;;;;;;;14.85;74.16;101323.06;10183037;28;20523;-68
2021/08/04 04:16:28;;;;;;;7.13;3.58;;;;;;;14.81;74.12;101324.88;10183636;28;20329;-67
2021/08/04 04:21:26;;;;;;;5.55;3.13;;;;;;;14.79;74.24;101333.47;10180272;28;20914;-69
2021/08/04 04:26:22;;;;;;;5.85;3.53;;;;;;;14.77;74.57;101330.22;10181396;28;20515;-69
2021/08/04 04:31:19;;;;;;;4.68;2.75;;;;;;;14.83;74.56;101333.59;10164042;28;20702;-66
2021/08/04 04:36:15;;;;;;;4.65;2.88;;;;;;;14.78;74.13;101331.81;10182229;28;20061;-67
2021/08/04 04:41:12;;;;;;;5.40;3.28;;;;;;;14.82;74.26;101332.78;10182012;28;20104;-68
2021/08/04 04:46:09;;;;;;;7.97;3.65;;;;;;;14.88;74.66;101342.47;10188908;28;20062;-66
2021/08/04 04:51:06;;;;;;;7.55;3.55;;;;;;;14.93;74.99;101349.75;10197428;28;20400;-67
2021/08/04 04:56:04;;;;;;;5.28;2.95;;;;;;;14.96;75.12;101348.28;10166208;28;20050;-68
2021/08/04 05:01:00;;;;;;;7.78;2.95;;;;;;;14.93;75.26;101355.25;10174864;28;20104;-65
2021/08/04 05:05:57;;;;;;;6.20;3.17;;;;;;;14.97;76.02;101360.88;10176042;28;20061;-68
2021/08/04 05:10:53;;;;;;;5.25;2.25;;;;;;;14.98;75.92;101352.31;10183463;28;20042;-66
2021/08/04 05:15:50;;;;;;;6.07;2.75;;;;;;;15.02;76.25;101357.97;10191092;28;20049;-66
2021/08/04 05:20:46;;;;;;;4.35;2.33;;;;;;;15.03;76.24;101357.63;10195843;28;20050;-66
2021/08/04 05:25:44;;;;;;;6.80;2.80;;;;;;;15.15;76.61;101362.41;10205047;28;20124;-70
2021/08/04 05:30:40;;;;;;;5.15;1.92;;;;;;;15.27;76.15;101359.75;10208236;28;20069;-70
2021/08/04 05:35:37;;;;;;;5.60;2.55;;;;;;;15.35;75.52;101356.13;10205285;28;20081;-69
2021/08/04 05:40:33;;;;;;;4.82;2.42;;;;;;;15.48;75.82;101353.44;10199570;28;20124;-69
2021/08/04 05:45:30;;;;;;;8.02;2.35;;;;;;;15.49;75.66;101355.06;10205460;28;20110;-68
2021/08/04 05:50:27;;;;;;;4.13;2.13;;;;;;;15.53;74.95;101361.53;10198224;28;20050;-68
2021/08/04 05:55:24;;;;;;;7.32;2.10;;;;;;;15.62;74.60;101365.03;10192102;28;20522;-69
2021/08/04 06:00:20;;;;;;;4.75;1.80;;;;;;;15.64;73.68;101368.25;10207344;28;20488;-69
2021/08/04 06:05:17;;;;;;;4.40;1.83;;;;;;;15.72;73.59;101364.63;10202394;28;20145;-69
2021/08/04 06:10:13;;;;;;;4.63;1.45;;;;;;;15.67;72.63;101367.56;10207345;28;20053;-68
2021/08/04 06:15:10;;;;;;;3.90;2.10;;;;;;;15.78;72.56;101374.34;10202328;28;20562;-67
2021/08/04 06:20:07;;;;;;;5.32;1.90;;;;;;;15.84;72.69;101368.59;10202434;28;20088;-68
2021/08/04 06:25:04;;;;;;;3.97;1.60;;;;;;;15.92;72.60;101373.22;10206136;28;20050;-69
2021/08/04 06:30:00;;;;;;;6.28;2.17;;;;;;;16.01;72.80;101370.38;10206834;28;20053;-69
2021/08/04 06:34:57;;;;;;;3.20;1.50;;;;;;;16.06;71.64;101381.22;10206981;28;20097;-69
2021/08/04 06:39:53;;;;;;;5.05;1.58;;;;;;;16.08;71.32;101382.50;10194768;28;20415;-70
2021/08/04 06:44:50;;;;;;;4.53;1.60;;;;;;;16.11;71.48;101384.59;10201971;28;20045;-69
2021/08/04 06:49:47;;;;;;;4.43;1.33;;;;;;;16.10;71.39;101385.72;10199409;28;20560;-67
2021/08/04 06:54:43;;;;;;;5.13;1.70;;;;;;;16.16;71.09;101384.38;10205380;28;20137;-67
2021/08/04 06:59:39;;;;;;;3.58;1.35;;;;;;;16.24;71.05;101381.84;10204590;28;20060;-69
2021/08/04 07:04:36;;;;;;;4.07;1.20;;;;;;;16.38;71.58;101385.09;10199073;28;20408;-69
2021/08/04 07:09:34;;;;;;;4.72;1.60;;;;;;;16.46;70.86;101386.97;10200971;28;20542;-68
2021/08/04 07:14:31;;;;;;;3.47;1.30;;;;;;;16.47;70.16;101387.78;10208384;28;20077;-67
2021/08/04 07:19:28;;;;;;;3.70;1.27;;;;;;;16.50;70.92;101387.09;10206593;28;20534;-70
2021/08/04 07:24:24;;;;;;;4.50;1.25;;;;;;;16.53;70.65;101392.75;10190760;28;20042;-69
2021/08/04 07:29:21;;;;;;;4.47;1.42;;;;;;;16.62;70.88;101396.22;10204156;28;20148;-69
2021/08/04 07:34:22;;;;;;;6.22;1.40;;;;;;;16.60;69.92;101404.03;10197638;28;20141;-68
2021/08/04 07:39:20;;;;;;;4.20;1.60;;;;;;;16.62;70.45;101407.25;10205679;28;20133;-67
2021/08/04 07:44:16;;;;;;;4.03;1.20;;;;;;;16.67;70.83;101408.19;10203934;28;20038;-69
2021/08/04 07:49:22;;;;;;;6.32;2.22;;;;;;;16.67;71.11;101402.66;10195841;28;20520;-69
2021/08/04 07:54:19;;;;;;;5.07;1.58;;;;;;;16.70;71.72;101418.53;10193716;28;20046;-68
2021/08/04 07:59:15;;;;;;;5.38;1.50;;;;;;;16.77;71.83;101419.59;10197502;28;20497;-70
2021/08/04 08:04:12;;;;;;;3.72;1.42;;;;;;;16.81;71.54;101419.75;10197277;28;20135;-68
2021/08/04 08:09:10;;;;;;;2.88;1.10;;;;;;;16.80;71.56;101415.34;10196682;28;20046;-68
2021/08/04 08:14:07;;;;;;;3.65;1.52;;;;;;;16.85;72.04;101409.63;10188415;28;20073;-68
2021/08/04 08:19:03;;;;;;;5.60;1.40;;;;;;;16.91;72.08;101407.44;10206872;28;20111;-70
2021/08/04 08:24:00;;;;;;;3.28;1.30;;;;;;;16.96;72.70;101409.97;10199821;28;20076;-68
2021/08/04 08:28:59;;;;;;;5.80;1.60;;;;;;;16.95;72.20;101411.94;10203066;28;20112;-68
2021/08/04 08:33:59;;;;;;;3.60;1.30;;;;;;;17.03;72.30;101405.50;10197764;28;20127;-70
2021/08/04 08:38:57;;;;;;;4.30;1.30;;;;;;;17.02;72.26;101401.09;10202639;28;20119;-70
2021/08/04 08:43:53;;;;;;;5.25;1.73;;;;;;;17.10;72.26;101404.09;10185966;28;20097;-69
2021/08/04 08:48:50;;;;;;;3.53;1.75;;;;;;;17.15;72.08;101406.63;10206632;28;20518;-67
2021/08/04 08:53:47;;;;;;;3.15;1.40;;;;;;;17.23;72.10;101408.47;10187598;28;20065;-70
2021/08/04 08:58:44;;;;;;;4.75;1.42;;;;;;;17.27;71.61;101414.94;10204901;28;20466;-68
2021/08/04 09:03:41;;;;;;;7.40;1.40;;;;;;;17.32;71.84;101405.59;10198786;28;20041;-70
2021/08/04 09:08:38;;;;;;;4.40;1.10;;;;;;;17.42;71.25;101416.97;10194879;28;20053;-69
2021/08/04 09:13:35;;;;;;;3.40;1.20;;;;;;;17.50;70.81;101406.13;10190050;28;20049;-70
2021/08/04 09:18:43;;;;;;;4.75;1.60;;;;;;;17.56;71.12;101421.34;10212483;28;20144;-67
2021/08/04 09:23:48;;;;;;;5.70;1.70;;;;;;;17.63;71.09;101410.50;10204187;28;20077;-70
2021/08/04 09:29:01;;;;;;;6.18;1.40;;;;;;;17.71;71.19;101406.81;10191612;28;20045;-70
2021/08/04 09:33:58;;;;;;;2.60;1.20;;;;;;;17.82;71.33;101413.50;10202946;28;20084;-69
2021/08/04 09:39:05;;;;;;;3.85;1.52;;;;;;;18.00;70.57;101402.13;10202655;28;20143;-68
2021/08/04 09:44:06;;;;;;;3.03;1.27;;;;;;;18.19;70.41;101398.69;10201619;28;20499;-69
2021/08/04 09:49:14;;;;;;;3.58;1.40;;;;;;;18.34;70.22;101402.66;10210713;28;20080;-70
2021/08/04 09:54:13;;;;;;;6.45;1.40;;;;;;;18.46;69.42;101399.81;10203851;28;20156;-70
2021/08/04 09:59:10;;;;;;;3.20;1.40;;;;;;;18.57;68.39;101402.88;10205598;28;20103;-70
2021/08/04 10:04:09;;;;;;;2.90;1.30;;;;;;;18.71;68.20;101392.16;10201353;28;20049;-69
2021/08/04 10:09:09;;;;;;;6.20;1.52;;;;;;;18.79;66.91;101398.72;10210395;28;20111;-70
2021/08/04 10:14:06;;;;;;;3.83;1.25;;;;;;;18.85;65.67;101397.28;10195154;28;20486;-68
2021/08/04 10:19:05;;;;;;;4.45;1.20;;;;;;;18.99;64.83;101388.53;10171237;28;20058;-69
2021/08/04 10:24:05;;;;;;;4.22;1.63;;;;;;;19.12;64.92;101387.25;10193147;28;20069;-68
2021/08/04 10:29:06;;;;;;;3.80;1.30;;;;;;;19.16;63.85;101384.56;10190958;28;20092;-70
2021/08/04 10:34:04;;;;;;;4.53;1.30;;;;;;;19.21;63.17;101392.59;10195876;28;20054;-69
2021/08/04 10:39:12;;;;;;;2.65;1.23;;;;;;;19.39;62.45;101388.28;10195935;28;20484;-70
2021/08/04 10:44:22;;;;;;;3.28;1.33;;;;;;;19.61;63.15;101389.56;10195969;28;20091;-70
2021/08/04 10:49:22;;;;;;;5.53;1.52;;;;;;;19.70;62.76;101386.59;10190783;28;20104;-69
2021/08/04 10:54:18;;;;;;;3.35;1.42;;;;;;;19.74;62.89;101384.69;10191540;28;20156;-69
2021/08/04 10:59:24;;;;;;;3.30;1.33;;;;;;;19.69;62.25;101379.44;10189573;28;20058;-69
2021/08/04 11:04:27;;;;;;;4.60;1.95;;;;;;;19.70;61.83;101369.94;10184766;28;20042;-69
2021/08/04 11:09:36;;;;;;;4.03;1.45;;;;;;;19.60;61.40;101373.28;10210431;28;20078;-70
2021/08/04 11:14:39;;;;;;;5.53;1.83;;;;;;;19.65;60.98;101372.97;10198770;28;20076;-70
2021/08/04 11:20:07;;;;;;;2.88;1.48;;;;;;;19.68;61.39;101366.69;10202631;28;20518;-69
2021/08/04 11:25:11;;;;;;;4.30;1.42;;;;;;;19.72;60.88;101367.59;10188210;28;20081;-70
2021/08/04 11:30:11;;;;;;;4.35;1.48;;;;;;;19.83;60.69;101351.97;10187858;28;20058;-69
2021/08/04 11:35:19;;;;;;;4.13;1.42;;;;;;;19.81;59.71;101354.31;10188833;28;20077;-70
2021/08/04 11:40:16;;;;;;;3.88;1.30;;;;;;;19.93;60.48;101356.13;10181837;28;20101;-70
2021/08/04 11:45:12;;;;;;;5.75;1.90;;;;;;;20.00;60.97;101355.47;10190298;28;20104;-70
2021/08/04 11:50:09;;;;;;;4.05;1.20;;;;;;;19.96;60.67;101350.66;10189651;28;20046;-69
2021/08/04 11:55:10;;;;;;;4.65;1.15;;;;;;;20.03;60.32;101351.97;10165780;28;20134;-69
2021/08/04 12:00:17;;;;;;;5.05;1.50;;;;;;;20.07;59.07;101350.06;10178166;28;20053;-70
2021/08/04 12:05:15;;;;;;;7.95;1.45;;;;;;;20.23;60.56;101347.97;10186347;28;20050;-69
2021/08/04 12:10:17;;;;;;;5.00;1.45;;;;;;;20.45;59.60;101351.97;10190362;28;20072;-68
2021/08/04 12:15:22;;;;;;;4.00;1.50;;;;;;;20.62;58.30;101342.34;10191889;28;20566;-69
2021/08/04 12:20:22;;;;;;;2.35;1.10;;;;;;;20.80;56.59;101332.31;10192084;28;20089;-69
2021/08/04 12:25:18;;;;;;;5.45;1.33;;;;;;;21.00;53.96;101335.00;10191044;28;20046;-68
2021/08/04 12:30:21;;;;;;;3.50;1.33;;;;;;;21.09;54.34;101327.19;10185462;28;20466;-69
2021/08/04 12:35:45;;;;;;;4.13;1.10;;;;;;;21.38;54.93;101322.03;10188482;28;20046;-71
2021/08/04 12:40:54;;;;;;;5.38;1.10;;;;;;;21.74;54.26;101314.16;10186308;28;20046;-70
2021/08/04 12:45:53;;;;;;;3.63;1.10;;;;;;;22.20;54.20;101313.84;10184032;28;20151;-69
2021/08/04 12:51:00;;;;;;;3.15;1.10;;;;;;;22.42;50.33;101312.91;10185802;28;20121;-70
2021/08/04 12:56:13;;;;;;;3.53;1.13;;;;;;;23.06;48.53;101300.63;10184004;28;20065;-70
2021/08/04 13:01:19;;;;;;;3.47;1.05;;;;;;;22.95;47.24;101296.94;10189820;28;20550;-70
2021/08/04 13:06:50;;;;;;;3.00;0.75;;;;;;;22.93;51.00;101296.53;10183421;28;20054;-69
2021/08/04 13:11:49;;;;;;;3.78;1.05;;;;;;;23.17;50.31;101290.34;10189315;28;20115;-70
2021/08/04 13:16:45;;;;;;;3.47;1.27;;;;;;;23.38;49.83;101288.84;10186125;28;20521;-69
2021/08/04 13:22:11;;;;;;;3.38;1.10;;;;;;;22.97;51.02;101292.56;10190438;28;20053;-69
2021/08/04 13:27:31;;;;;;;2.53;0.95;;;;;;;22.46;51.63;101291.44;10177906;28;20081;-69
2021/08/04 13:32:27;;;;;;;3.28;1.30;;;;;;;22.13;52.10;101285.94;10181254;28;20121;-70
2021/08/04 13:37:23;;;;;;;3.70;1.25;;;;;;;22.03;52.38;101284.66;10199388;28;20129;-70
2021/08/04 13:42:20;;;;;;;3.38;1.40;;;;;;;21.72;52.51;101291.47;10190849;28;20133;-70
2021/08/04 13:47:16;;;;;;;3.13;1.15;;;;;;;21.69;52.45;101287.47;10199209;28;20373;-70
2021/08/04 13:52:13;;;;;;;3.90;1.08;;;;;;;21.55;53.12;101293.66;10190831;28;20038;-69
2021/08/04 13:57:09;;;;;;;3.78;1.80;;;;;;;21.37;53.89;101332.34;10190730;28;20128;-69
2021/08/04 14:02:06;;;;;;;3.53;1.63;;;;;;;20.54;54.82;101346.16;10199760;28;20053;-70
2021/08/04 14:07:03;;;;;;;4.65;1.70;;;;;;;19.88;57.87;101360.00;10195821;28;20058;-69
2021/08/04 14:12:00;;;;;;;3.30;1.45;;;;;;;19.56;59.62;101364.84;10193601;28;20073;-69
2021/08/04 14:16:56;;;;;;;4.47;1.50;;;;;;;19.12;63.34;101363.13;10196929;28;20050;-69
2021/08/04 14:21:57;;;;;;;5.82;1.80;;;;;;;18.66;68.06;101373.06;10192793;28;20045;-69
2021/08/04 14:26:53;;;;;;;9.45;2.92;;;;;;;18.33;69.77;101378.91;10191375;28;20069;-68
2021/08/04 14:31:51;;;;;;;8.30;2.88;;;;;;;18.10;72.00;101382.22;10191386;28;20228;-69
2021/08/04 14:36:47;;;;;;;6.50;2.90;;;;;;;17.88;74.35;101373.34;10192199;28;20084;-69
2021/08/04 14:41:44;;;;;;;6.18;2.58;;;;;;;17.69;74.70;101384.22;10187844;28;20104;-70
2021/08/04 14:46:41;;;;;;;6.63;3.22;;;;;;;17.52;76.86;101377.00;10192076;28;20486;-69
2021/08/04 14:51:38;;;;;;;5.93;3.00;;;;;;;17.34;77.45;101390.28;10190857;28;20064;-69
2021/08/04 14:56:34;;;;;;;6.95;2.95;;;;;;;17.29;78.44;101379.47;10187192;28;20074;-68
2021/08/04 15:01:31;;;;;;;6.60;3.45;;;;;;;17.34;79.25;101375.66;10190380;28;20050;-66
2021/08/04 15:06:27;;;;;;;6.68;3.15;;;;;;;17.30;79.79;101381.06;10190438;28;20076;-69
2021/08/04 15:11:26;;;;;;;5.88;3.13;;;;;;;17.21;78.84;101380.38;10172806;28;20050;-68
2021/08/04 15:16:23;;;;;;;4.63;2.58;;;;;;;17.24;79.69;101377.75;10197893;28;20103;-67
2021/08/04 15:21:20;;;;;;;8.70;2.70;;;;;;;17.21;79.33;101377.63;10191785;28;20060;-67
2021/08/04 15:26:17;;;;;;;7.28;2.72;;;;;;;17.05;79.10;101374.75;10190555;28;20467;-67
2021/08/04 15:31:14;;;;;;;5.75;2.72;;;;;;;16.89;79.34;101366.34;10176336;28;20586;-68
2021/08/04 15:36:11;;;;;;;4.65;2.45;;;;;;;16.96;80.24;101355.53;10185491;28;20052;-67
2021/08/04 15:41:08;;;;;;;4.72;1.95;;;;;;;16.89;80.61;101349.78;10186179;28;20631;-67
2021/08/04 15:46:05;;;;;;;5.20;2.47;;;;;;;16.87;81.02;101340.22;10184711;28;20077;-67
2021/08/04 15:51:02;;;;;;;5.35;2.65;;;;;;;16.85;81.23;101342.53;10188609;28;20504;-67
2021/08/04 15:55:58;;;;;;;9.80;3.03;;;;;;;16.78;81.46;101345.84;10185311;28;20788;-67
2021/08/04 16:00:55;;;;;;;5.82;2.53;;;;;;;16.77;81.45;101347.00;10186987;28;20050;-67
2021/08/04 16:05:51;;;;;;;5.07;2.83;;;;;;;16.75;81.30;101349.28;10183187;28;20669;-67
2021/08/04 16:10:48;;;;;;;5.88;3.47;;;;;;;16.70;81.67;101346.75;10195041;28;20636;-72
2021/08/04 16:15:44;;;;;;;5.32;3.03;;;;;;;16.80;82.60;101340.78;10198194;28;20144;-67
2021/08/04 16:20:42;;;;;;;6.72;3.28;;;;;;;16.78;82.06;101340.34;10189732;28;20100;-67
2021/08/04 16:25:38;;;;;;;8.43;2.92;;;;;;;16.70;81.94;101336.50;10181493;28;20069;-68
2021/08/04 16:30:34;;;;;;;6.10;3.45;;;;;;;16.67;82.62;101328.13;10185450;28;20499;-66
2021/08/04 16:35:31;;;;;;;7.78;3.10;;;;;;;16.77;83.51;101313.84;10173760;28;20069;-67
2021/08/04 16:40:28;;;;;;;7.22;3.25;;;;;;;16.83;82.78;101307.78;10187697;28;20073;-67
2021/08/04 16:45:27;;;;;;;6.95;2.60;;;;;;;16.89;82.15;101297.28;10183364;28;21656;-67
2021/08/04 16:50:24;;;;;;;8.43;3.17;;;;;;;16.87;82.02;101302.34;10185169;28;20109;-66
2021/08/04 16:55:20;;;;;;;4.40;2.88;;;;;;;16.87;82.87;101296.84;10184263;28;20042;-66
2021/08/04 17:00:24;;;;;;;7.60;3.60;;;;;;;16.92;83.09;101304.06;10185905;28;20107;-67
2021/08/04 17:05:21;;;;;;;5.32;2.70;;;;;;;16.95;82.89;101293.16;10183535;28;20270;-66
2021/08/04 17:10:18;;;;;;;7.95;2.97;;;;;;;16.98;83.05;101292.44;10189721;28;20435;-66
2021/08/04 17:15:16;;;;;;;5.45;2.78;;;;;;;16.97;82.98;101299.13;10194129;28;20042;-66
2021/08/04 17:20:14;;;;;;;5.90;3.22;;;;;;;16.98;82.73;101299.94;10192962;28;20074;-66
2021/08/04 17:25:11;;;;;;;6.55;3.55;;;;;;;16.89;82.95;101294.53;10181185;28;20056;-68
2021/08/04 17:30:08;;;;;;;5.10;3.42;;;;;;;16.83;83.16;101295.94;10207308;28;20064;-66
2021/08/04 17:35:06;;;;;;;5.15;3.22;;;;;;;16.86;83.68;101289.72;10186465;28;20137;-66
2021/08/04 17:40:05;;;;;;;6.82;3.20;;;;;;;16.81;83.52;101287.19;10196269;28;20057;-66
2021/08/04 17:45:01;;;;;;;6.40;2.92;;;;;;;16.81;84.02;101281.66;10196106;28;20050;-66
2021/08/04 17:50:01;;;;;;;8.82;3.28;;;;;;;16.81;83.78;101292.72;10198064;28;20127;-66
2021/08/04 17:54:57;;;;;;;5.53;2.78;;;;;;;16.80;83.25;101288.31;10198895;28;20090;-66
2021/08/04 17:59:54;;;;;;;5.10;3.30;;;;;;;16.75;83.92;101288.53;10198927;28;20046;-66
2021/08/04 18:04:51;;;;;;;5.20;2.85;;;;;;;16.77;84.24;101291.75;10203963;28;20318;-66
2021/08/04 18:09:48;;;;;;;5.60;2.92;;;;;;;16.78;84.16;101283.13;10192316;28;20107;-66
2021/08/04 18:14:44;;;;;;;4.00;2.25;;;;;;;16.75;83.91;101283.00;10189222;28;20046;-66
2021/08/04 18:19:41;;;;;;;4.35;2.60;;;;;;;16.71;84.03;101282.09;10192140;28;20499;-66
2021/08/04 18:24:38;;;;;;;6.07;2.40;;;;;;;16.70;84.08;101274.97;10197036;28;20037;-67
2021/08/04 18:29:34;;;;;;;7.05;2.60;;;;;;;16.65;83.74;101278.75;10189504;28;20045;-66
2021/08/04 18:34:31;;;;;;;7.38;3.13;;;;;;;16.67;84.07;101281.19;10192922;28;20045;-66
2021/08/04 18:39:27;;;;;;;5.40;2.88;;;;;;;16.62;84.26;101282.22;10197557;28;20408;-66
2021/08/04 18:44:24;;;;;;;4.68;2.65;;;;;;;16.61;83.78;101295.19;10190848;28;20123;-67
2021/08/04 18:49:24;;;;;;;5.28;3.00;;;;;;;16.53;84.21;101292.56;10189786;28;20516;-66
2021/08/04 18:54:20;;;;;;;6.15;3.30;;;;;;;16.51;84.58;101281.88;10169863;28;20141;-67
2021/08/04 18:59:17;;;;;;;5.78;2.70;;;;;;;16.52;84.93;101296.47;10185781;28;20107;-67
2021/08/04 19:04:14;;;;;;;10.82;3.50;;;;;;;16.50;85.11;101299.59;10193529;28;20780;-67
2021/08/04 19:09:11;;;;;;;5.57;2.90;;;;;;;16.51;85.03;101295.66;10199787;28;20431;-67
2021/08/04 19:14:07;;;;;;;4.72;2.60;;;;;;;16.49;85.25;101303.47;10175498;28;20702;-67
2021/08/04 19:19:04;;;;;;;7.25;3.25;;;;;;;16.48;85.63;101317.66;10205727;28;20057;-67
2021/08/04 19:24:00;;;;;;;7.72;3.50;;;;;;;16.48;85.65;101329.47;10202534;28;20159;-67
2021/08/04 19:28:57;;;;;;;4.90;3.20;;;;;;;16.48;85.93;101326.72;10195291;28;20133;-67
2021/08/04 19:33:54;;;;;;;7.05;3.47;;;;;;;16.46;85.86;101331.78;10192962;28;20471;-67
2021/08/04 19:38:51;;;;;;;5.53;3.55;;;;;;;16.44;85.72;101328.56;10170410;28;20049;-66
2021/08/04 19:43:47;;;;;;;6.38;3.60;;;;;;;16.42;86.06;101322.56;10189474;28;20111;-66
2021/08/04 19:48:44;;;;;;;5.78;3.85;;;;;;;16.41;86.41;101324.53;10187103;28;20145;-66
2021/08/04 19:53:40;;;;;;;4.82;3.30;;;;;;;16.40;86.28;101322.91;10198112;28;20080;-66
2021/08/04 19:58:37;;;;;;;6.38;3.35;;;;;;;16.41;86.20;101329.25;10179691;28;20133;-66
2021/08/04 20:03:33;;;;;;;12.40;3.80;;;;;;;16.40;86.84;101322.09;10191190;28;20034;-66
2021/08/04 20:08:30;;;;;;;8.60;4.57;;;;;;;16.41;86.69;101329.25;10186670;28;20046;-66
2021/08/04 20:13:27;;;;;;;7.72;3.95;;;;;;;16.38;86.50;101327.16;10188573;28;20069;-66
2021/08/04 20:18:28;;;;;;;7.55;3.67;;;;;;;16.36;86.72;101315.66;10182911;28;20307;-66
2021/08/04 20:23:24;;;;;;;6.45;4.30;;;;;;;16.36;86.94;101315.66;10182036;28;20045;-66
2021/08/04 20:28:20;;;;;;;7.43;4.43;;;;;;;16.34;86.97;101317.97;10190794;28;20077;-66
2021/08/04 20:33:17;;;;;;;5.95;3.72;;;;;;;16.32;86.83;101303.72;10183129;28;20038;-66
2021/08/04 20:38:13;;;;;;;6.97;4.10;;;;;;;16.29;86.88;101312.66;10184738;28;20140;-67
2021/08/04 20:43:10;;;;;;;9.90;4.38;;;;;;;16.29;87.00;101309.88;10186264;28;20050;-68
2021/08/04 20:48:06;;;;;;;8.25;4.30;;;;;;;16.23;86.95;101300.25;10196308;28;20076;-70
2021/08/04 20:53:03;;;;;;;6.75;4.45;;;;;;;16.18;86.77;101302.06;10192363;28;20096;-70
2021/08/04 20:58:02;;;;;;;6.18;4.20;;;;;;;16.17;86.96;101300.44;10190313;28;20111;-70
2021/08/04 21:03:00;;;;;;;7.07;5.10;;;;;;;16.16;87.28;101298.84;10192608;28;20081;-69
2021/08/04 21:07:57;;;;;;;8.75;4.50;;;;;;;16.13;87.64;101296.78;10190912;28;20053;-72
2021/08/04 21:12:54;;;;;;;8.30;4.50;;;;;;;16.14;87.44;101286.53;10194215;28;20143;-72
2021/08/04 21:17:51;;;;;;;10.38;5.50;;;;;;;16.12;87.81;101284.09;10189975;28;20881;-72
2021/08/04 21:22:48;;;;;;;8.63;4.78;;;;;;;16.14;87.63;101284.56;10195683;28;20558;-71
2021/08/04 21:27:45;;;;;;;7.95;4.72;;;;;;;16.10;87.53;101280.88;10197192;28;20085;-72
2021/08/04 21:32:42;;;;;;;7.53;4.88;;;;;;;16.10;87.68;101286.41;10193881;28;20132;-71
2021/08/04 21:37:39;;;;;;;9.95;5.22;;;;;;;16.11;87.66;101285.28;10191323;28;20073;-71
2021/08/04 21:42:36;;;;;;;11.13;5.28;;;;;;;16.11;87.66;101285.28;10189025;28;20499;-70
2021/08/04 21:47:34;;;;;;;13.52;5.03;;;;;;;16.11;87.91;101277.00;10189187;28;20062;-70
2021/08/04 21:52:30;;;;;;;8.27;5.07;;;;;;;16.08;87.68;101277.69;10192496;28;20046;-70
2021/08/04 21:57:27;;;;;;;6.10;4.70;;;;;;;16.05;87.90;101266.53;10195299;28;20045;-69
2021/08/04 22:02:23;;;;;;;10.05;5.03;;;;;;;15.99;87.59;101261.22;10192531;28;20496;-71
2021/08/04 22:07:20;;;;;;;6.82;4.95;;;;;;;15.95;87.98;101273.28;10189387;28;20160;-70
2021/08/04 22:12:17;;;;;;;7.80;5.25;;;;;;;15.90;87.65;101265.22;10193841;28;20050;-71
2021/08/04 22:17:13;;;;;;;12.57;5.32;;;;;;;15.88;87.83;101268.31;10193087;28;20126;-70
2021/08/04 22:22:10;;;;;;;7.25;4.57;;;;;;;15.83;87.72;101259.44;10198792;28;20482;-70
2021/08/04 22:27:06;;;;;;;10.80;5.70;;;;;;;15.82;87.78;101268.88;10198904;28;20042;-70
2021/08/04 22:32:03;;;;;;;11.45;5.25;;;;;;;15.77;87.46;101267.13;10191018;28;20045;-70
2021/08/04 22:37:00;;;;;;;10.05;4.97;;;;;;;15.71;87.40;101266.56;10192253;28;20076;-69
2021/08/04 22:41:56;;;;;;;7.75;5.43;;;;;;;15.67;87.80;101262.81;10193143;28;20049;-69
2021/08/04 22:46:53;;;;;;;8.82;5.50;;;;;;;15.65;87.42;101265.09;10191425;28;20064;-69
2021/08/04 22:51:50;;;;;;;10.70;4.85;;;;;;;15.61;87.29;101258.66;10192998;28;20077;-69